sensor_id;sensor_type;location;lat;lon;timestamp;P1;durP1;ratioP1;P2;durP2;ratioP2
2658;SDS011;1339;53.304;10.406;2023-02-28T00:02:25;12.43;;;9.23;;
2658;SDS011;1339;53.304;10.406;2023-02-28T00:04:52;14.88;;;9.82;;
2658;SDS011;1339;53.304;10.406;2023-02-28T00:07:25;10.05;;;9.05;;
2658;SDS011;1339;53.304;10.406;2023-02-28T00:09:52;9.60;;;8.70;;
2658;SDS011;1339;53.304;10.406;2023-02-28T00:12:19;10.40;;;8.43;;
2658;SDS011;1339;53.304;10.406;2023-02-28T00:14:46;14.05;;;9.73;;
2658;SDS011;1339;53.304;10.406;2023-02-28T00:17:15;12.50;;;8.25;;
2658;SDS011;1339;53.304;10.406;2023-02-28T00:19:42;15.10;;;9.23;;
2658;SDS011;1339;53.304;10.406;2023-02-28T00:22:09;15.48;;;9.75;;
2658;SDS011;1339;53.304;10.406;2023-02-28T00:24:36;14.70;;;8.80;;
2658;SDS011;1339;53.304;10.406;2023-02-28T00:27:03;19.17;;;9.75;;
2658;SDS011;1339;53.304;10.406;2023-02-28T00:29:30;13.27;;;9.95;;
2658;SDS011;1339;53.304;10.406;2023-02-28T00:31:57;11.80;;;7.97;;
2658;SDS011;1339;53.304;10.406;2023-02-28T00:34:25;12.18;;;9.73;;
2658;SDS011;1339;53.304;10.406;2023-02-28T00:36:52;10.73;;;9.35;;
2658;SDS011;1339;53.304;10.406;2023-02-28T00:39:19;11.15;;;9.25;;
2658;SDS011;1339;53.304;10.406;2023-02-28T00:41:46;15.02;;;9.85;;
2658;SDS011;1339;53.304;10.406;2023-02-28T00:44:13;8.98;;;8.07;;
2658;SDS011;1339;53.304;10.406;2023-02-28T00:46:40;14.40;;;9.65;;
2658;SDS011;1339;53.304;10.406;2023-02-28T00:49:07;10.90;;;9.30;;
2658;SDS011;1339;53.304;10.406;2023-02-28T00:51:35;12.25;;;9.98;;
2658;SDS011;1339;53.304;10.406;2023-02-28T00:54:02;10.45;;;9.45;;
2658;SDS011;1339;53.304;10.406;2023-02-28T00:56:29;11.15;;;9.10;;
2658;SDS011;1339;53.304;10.406;2023-02-28T00:58:56;11.10;;;8.40;;
2658;SDS011;1339;53.304;10.406;2023-02-28T01:01:23;10.07;;;7.95;;
2658;SDS011;1339;53.304;10.406;2023-02-28T01:03:50;11.80;;;9.45;;
2658;SDS011;1339;53.304;10.406;2023-02-28T01:06:17;11.05;;;9.73;;
2658;SDS011;1339;53.304;10.406;2023-02-28T01:08:45;9.98;;;8.80;;
2658;SDS011;1339;53.304;10.406;2023-02-28T01:11:13;10.75;;;8.40;;
2658;SDS011;1339;53.304;10.406;2023-02-28T01:13:41;10.85;;;8.77;;
2658;SDS011;1339;53.304;10.406;2023-02-28T01:16:08;12.52;;;10.07;;
2658;SDS011;1339;53.304;10.406;2023-02-28T01:18:35;9.82;;;7.82;;
2658;SDS011;1339;53.304;10.406;2023-02-28T01:21:03;10.13;;;8.93;;
2658;SDS011;1339;53.304;10.406;2023-02-28T01:23:30;9.23;;;7.43;;
2658;SDS011;1339;53.304;10.406;2023-02-28T01:25:59;11.05;;;7.90;;
2658;SDS011;1339;53.304;10.406;2023-02-28T01:28:29;8.80;;;7.95;;
2658;SDS011;1339;53.304;10.406;2023-02-28T01:30:56;10.38;;;8.07;;
2658;SDS011;1339;53.304;10.406;2023-02-28T01:33:23;8.20;;;7.20;;
2658;SDS011;1339;53.304;10.406;2023-02-28T01:35:56;9.27;;;6.57;;
2658;SDS011;1339;53.304;10.406;2023-02-28T01:38:23;9.10;;;6.63;;
2658;SDS011;1339;53.304;10.406;2023-02-28T01:40:50;7.68;;;6.65;;
2658;SDS011;1339;53.304;10.406;2023-02-28T01:43:21;7.63;;;6.72;;
2658;SDS011;1339;53.304;10.406;2023-02-28T01:45:49;7.45;;;6.75;;
2658;SDS011;1339;53.304;10.406;2023-02-28T01:48:16;9.70;;;6.15;;
2658;SDS011;1339;53.304;10.406;2023-02-28T01:50:44;8.73;;;6.70;;
2658;SDS011;1339;53.304;10.406;2023-02-28T01:53:13;7.45;;;5.50;;
2658;SDS011;1339;53.304;10.406;2023-02-28T01:55:41;7.70;;;6.00;;
2658;SDS011;1339;53.304;10.406;2023-02-28T01:58:09;11.38;;;6.80;;
2658;SDS011;1339;53.304;10.406;2023-02-28T02:00:37;7.63;;;6.75;;
2658;SDS011;1339;53.304;10.406;2023-02-28T02:03:08;7.45;;;6.70;;
2658;SDS011;1339;53.304;10.406;2023-02-28T02:05:35;12.57;;;5.78;;
2658;SDS011;1339;53.304;10.406;2023-02-28T02:08:04;8.70;;;6.45;;
2658;SDS011;1339;53.304;10.406;2023-02-28T02:10:32;6.63;;;5.53;;
2658;SDS011;1339;53.304;10.406;2023-02-28T02:13:05;10.07;;;6.55;;
2658;SDS011;1339;53.304;10.406;2023-02-28T02:15:34;8.45;;;6.30;;
2658;SDS011;1339;53.304;10.406;2023-02-28T02:18:06;8.43;;;5.95;;
2658;SDS011;1339;53.304;10.406;2023-02-28T02:20:43;9.18;;;6.40;;
2658;SDS011;1339;53.304;10.406;2023-02-28T02:26:09;7.45;;;6.70;;
2658;SDS011;1339;53.304;10.406;2023-02-28T02:28:51;6.68;;;6.07;;
2658;SDS011;1339;53.304;10.406;2023-02-28T02:31:29;7.43;;;6.72;;
2658;SDS011;1339;53.304;10.406;2023-02-28T02:34:09;7.75;;;5.72;;
2658;SDS011;1339;53.304;10.406;2023-02-28T02:36:41;8.00;;;5.25;;
2658;SDS011;1339;53.304;10.406;2023-02-28T02:39:15;7.30;;;6.35;;
2658;SDS011;1339;53.304;10.406;2023-02-28T02:41:45;6.75;;;6.07;;
2658;SDS011;1339;53.304;10.406;2023-02-28T02:44:15;10.18;;;6.10;;
2658;SDS011;1339;53.304;10.406;2023-02-28T02:46:45;7.63;;;5.95;;
2658;SDS011;1339;53.304;10.406;2023-02-28T02:49:16;7.70;;;6.53;;
2658;SDS011;1339;53.304;10.406;2023-02-28T02:51:45;8.85;;;5.68;;
2658;SDS011;1339;53.304;10.406;2023-02-28T02:54:13;8.30;;;6.60;;
2658;SDS011;1339;53.304;10.406;2023-02-28T02:56:42;10.00;;;6.28;;
2658;SDS011;1339;53.304;10.406;2023-02-28T02:59:11;8.95;;;7.25;;
2658;SDS011;1339;53.304;10.406;2023-02-28T03:01:38;9.95;;;6.60;;
2658;SDS011;1339;53.304;10.406;2023-02-28T03:04:08;7.88;;;6.20;;
2658;SDS011;1339;53.304;10.406;2023-02-28T03:06:36;7.82;;;6.97;;
2658;SDS011;1339;53.304;10.406;2023-02-28T03:09:03;8.82;;;6.78;;
2658;SDS011;1339;53.304;10.406;2023-02-28T03:11:30;7.05;;;5.97;;
2658;SDS011;1339;53.304;10.406;2023-02-28T03:14:01;10.82;;;7.25;;
2658;SDS011;1339;53.304;10.406;2023-02-28T03:16:32;7.38;;;5.80;;
2658;SDS011;1339;53.304;10.406;2023-02-28T03:19:03;8.15;;;6.78;;
2658;SDS011;1339;53.304;10.406;2023-02-28T03:21:34;9.07;;;7.68;;
2658;SDS011;1339;53.304;10.406;2023-02-28T03:24:05;8.63;;;6.60;;
2658;SDS011;1339;53.304;10.406;2023-02-28T03:26:33;8.80;;;6.13;;
2658;SDS011;1339;53.304;10.406;2023-02-28T03:29:03;9.82;;;7.10;;
2658;SDS011;1339;53.304;10.406;2023-02-28T03:31:32;11.60;;;7.93;;
2658;SDS011;1339;53.304;10.406;2023-02-28T03:34:03;11.02;;;7.78;;
2658;SDS011;1339;53.304;10.406;2023-02-28T03:36:31;7.20;;;5.53;;
2658;SDS011;1339;53.304;10.406;2023-02-28T03:38:59;10.20;;;6.78;;
2658;SDS011;1339;53.304;10.406;2023-02-28T03:41:31;7.78;;;7.07;;
2658;SDS011;1339;53.304;10.406;2023-02-28T03:44:02;9.18;;;6.72;;
2658;SDS011;1339;53.304;10.406;2023-02-28T03:46:30;6.78;;;5.80;;
2658;SDS011;1339;53.304;10.406;2023-02-28T03:49:00;8.23;;;6.57;;
2658;SDS011;1339;53.304;10.406;2023-02-28T03:51:28;8.48;;;6.90;;
2658;SDS011;1339;53.304;10.406;2023-02-28T03:53:56;14.05;;;6.60;;
2658;SDS011;1339;53.304;10.406;2023-02-28T03:56:26;7.05;;;6.35;;
2658;SDS011;1339;53.304;10.406;2023-02-28T03:58:58;7.75;;;5.95;;
2658;SDS011;1339;53.304;10.406;2023-02-28T04:01:30;7.57;;;5.85;;
2658;SDS011;1339;53.304;10.406;2023-02-28T04:03:58;7.32;;;5.65;;
2658;SDS011;1339;53.304;10.406;2023-02-28T04:06:25;11.80;;;6.43;;
2658;SDS011;1339;53.304;10.406;2023-02-28T04:08:52;5.72;;;5.13;;
2658;SDS011;1339;53.304;10.406;2023-02-28T04:11:20;8.48;;;5.97;;
2658;SDS011;1339;53.304;10.406;2023-02-28T04:13:47;10.57;;;6.60;;
2658;SDS011;1339;53.304;10.406;2023-02-28T04:16:16;8.38;;;5.75;;
2658;SDS011;1339;53.304;10.406;2023-02-28T04:18:43;6.03;;;5.43;;
2658;SDS011;1339;53.304;10.406;2023-02-28T04:21:10;6.18;;;5.55;;
2658;SDS011;1339;53.304;10.406;2023-02-28T04:23:37;10.23;;;6.82;;
2658;SDS011;1339;53.304;10.406;2023-02-28T04:26:04;7.88;;;5.85;;
2658;SDS011;1339;53.304;10.406;2023-02-28T04:28:31;5.72;;;4.90;;
2658;SDS011;1339;53.304;10.406;2023-02-28T04:30:59;5.88;;;5.13;;
2658;SDS011;1339;53.304;10.406;2023-02-28T04:33:28;8.85;;;5.55;;
2658;SDS011;1339;53.304;10.406;2023-02-28T04:35:58;6.82;;;5.18;;
2658;SDS011;1339;53.304;10.406;2023-02-28T04:38:25;6.85;;;5.25;;
2658;SDS011;1339;53.304;10.406;2023-02-28T04:40:52;7.43;;;5.50;;
2658;SDS011;1339;53.304;10.406;2023-02-28T04:43:19;11.00;;;6.85;;
2658;SDS011;1339;53.304;10.406;2023-02-28T04:45:46;6.53;;;5.10;;
2658;SDS011;1339;53.304;10.406;2023-02-28T04:48:13;6.55;;;5.90;;
2658;SDS011;1339;53.304;10.406;2023-02-28T04:50:41;6.65;;;6.13;;
2658;SDS011;1339;53.304;10.406;2023-02-28T04:53:08;6.40;;;5.75;;
2658;SDS011;1339;53.304;10.406;2023-02-28T04:55:35;8.55;;;5.72;;
2658;SDS011;1339;53.304;10.406;2023-02-28T04:58:05;10.13;;;6.50;;
2658;SDS011;1339;53.304;10.406;2023-02-28T05:00:32;7.82;;;7.07;;
2658;SDS011;1339;53.304;10.406;2023-02-28T05:02:59;9.50;;;6.50;;
2658;SDS011;1339;53.304;10.406;2023-02-28T05:05:25;6.95;;;5.95;;
2658;SDS011;1339;53.304;10.406;2023-02-28T05:07:54;8.43;;;6.00;;
2658;SDS011;1339;53.304;10.406;2023-02-28T05:10:21;9.15;;;5.55;;
2658;SDS011;1339;53.304;10.406;2023-02-28T05:12:48;8.50;;;5.95;;
2658;SDS011;1339;53.304;10.406;2023-02-28T05:15:15;10.77;;;6.53;;
2658;SDS011;1339;53.304;10.406;2023-02-28T05:17:43;9.02;;;6.35;;
2658;SDS011;1339;53.304;10.406;2023-02-28T05:20:10;7.95;;;5.88;;
2658;SDS011;1339;53.304;10.406;2023-02-28T05:22:38;8.95;;;6.30;;
2658;SDS011;1339;53.304;10.406;2023-02-28T05:25:08;6.03;;;5.50;;
2658;SDS011;1339;53.304;10.406;2023-02-28T05:27:36;6.05;;;5.43;;
2658;SDS011;1339;53.304;10.406;2023-02-28T05:30:03;9.15;;;5.60;;
2658;SDS011;1339;53.304;10.406;2023-02-28T05:32:31;9.68;;;8.35;;
2658;SDS011;1339;53.304;10.406;2023-02-28T05:34:58;7.32;;;5.72;;
2658;SDS011;1339;53.304;10.406;2023-02-28T05:37:25;8.93;;;5.38;;
2658;SDS011;1339;53.304;10.406;2023-02-28T05:39:53;7.57;;;6.00;;
2658;SDS011;1339;53.304;10.406;2023-02-28T05:42:21;6.88;;;5.80;;
2658;SDS011;1339;53.304;10.406;2023-02-28T05:44:48;10.55;;;6.38;;
2658;SDS011;1339;53.304;10.406;2023-02-28T05:47:15;9.77;;;6.90;;
2658;SDS011;1339;53.304;10.406;2023-02-28T05:49:41;6.43;;;5.65;;
2658;SDS011;1339;53.304;10.406;2023-02-28T05:52:08;12.82;;;6.40;;
2658;SDS011;1339;53.304;10.406;2023-02-28T05:54:35;7.43;;;5.60;;
2658;SDS011;1339;53.304;10.406;2023-02-28T05:57:02;8.13;;;5.63;;
2658;SDS011;1339;53.304;10.406;2023-02-28T05:59:31;6.35;;;5.80;;
2658;SDS011;1339;53.304;10.406;2023-02-28T06:01:58;8.77;;;6.05;;
2658;SDS011;1339;53.304;10.406;2023-02-28T06:04:24;15.05;;;6.53;;
2658;SDS011;1339;53.304;10.406;2023-02-28T06:06:51;7.10;;;5.68;;
2658;SDS011;1339;53.304;10.406;2023-02-28T06:09:18;11.95;;;7.03;;
2658;SDS011;1339;53.304;10.406;2023-02-28T06:11:46;8.88;;;6.57;;
2658;SDS011;1339;53.304;10.406;2023-02-28T06:14:14;8.60;;;6.15;;
2658;SDS011;1339;53.304;10.406;2023-02-28T06:16:43;17.88;;;7.40;;
2658;SDS011;1339;53.304;10.406;2023-02-28T06:19:10;7.47;;;6.20;;
2658;SDS011;1339;53.304;10.406;2023-02-28T06:21:37;9.52;;;6.45;;
2658;SDS011;1339;53.304;10.406;2023-02-28T06:24:04;9.32;;;5.22;;
2658;SDS011;1339;53.304;10.406;2023-02-28T06:26:31;10.18;;;7.45;;
2658;SDS011;1339;53.304;10.406;2023-02-28T06:28:58;10.95;;;6.22;;
2658;SDS011;1339;53.304;10.406;2023-02-28T06:31:26;8.43;;;6.72;;
2658;SDS011;1339;53.304;10.406;2023-02-28T06:33:55;9.73;;;6.05;;
2658;SDS011;1339;53.304;10.406;2023-02-28T06:36:22;10.27;;;5.80;;
2658;SDS011;1339;53.304;10.406;2023-02-28T06:38:50;13.18;;;5.70;;
2658;SDS011;1339;53.304;10.406;2023-02-28T06:41:19;8.35;;;6.70;;
2658;SDS011;1339;53.304;10.406;2023-02-28T06:43:46;9.13;;;7.20;;
2658;SDS011;1339;53.304;10.406;2023-02-28T06:46:13;7.70;;;6.07;;
2658;SDS011;1339;53.304;10.406;2023-02-28T06:48:40;7.03;;;6.20;;
2658;SDS011;1339;53.304;10.406;2023-02-28T06:51:10;11.82;;;6.53;;
2658;SDS011;1339;53.304;10.406;2023-02-28T06:53:38;12.95;;;6.38;;
2658;SDS011;1339;53.304;10.406;2023-02-28T06:56:05;7.15;;;6.05;;
2658;SDS011;1339;53.304;10.406;2023-02-28T06:58:32;6.80;;;5.50;;
2658;SDS011;1339;53.304;10.406;2023-02-28T07:00:59;11.95;;;6.53;;
2658;SDS011;1339;53.304;10.406;2023-02-28T07:03:26;13.27;;;7.22;;
2658;SDS011;1339;53.304;10.406;2023-02-28T07:05:53;10.05;;;7.35;;
2658;SDS011;1339;53.304;10.406;2023-02-28T07:08:22;8.48;;;7.57;;
2658;SDS011;1339;53.304;10.406;2023-02-28T07:10:51;18.30;;;7.15;;
2658;SDS011;1339;53.304;10.406;2023-02-28T07:13:18;13.95;;;6.93;;
2658;SDS011;1339;53.304;10.406;2023-02-28T07:15:52;15.95;;;7.65;;
2658;SDS011;1339;53.304;10.406;2023-02-28T07:18:19;10.60;;;6.78;;
2658;SDS011;1339;53.304;10.406;2023-02-28T07:20:46;11.80;;;6.38;;
2658;SDS011;1339;53.304;10.406;2023-02-28T07:23:13;12.80;;;6.43;;
2658;SDS011;1339;53.304;10.406;2023-02-28T07:25:41;10.02;;;7.45;;
2658;SDS011;1339;53.304;10.406;2023-02-28T07:28:08;13.00;;;6.80;;
2658;SDS011;1339;53.304;10.406;2023-02-28T07:30:35;6.40;;;5.80;;
2658;SDS011;1339;53.304;10.406;2023-02-28T07:33:02;10.00;;;7.13;;
2658;SDS011;1339;53.304;10.406;2023-02-28T07:35:29;7.28;;;6.30;;
2658;SDS011;1339;53.304;10.406;2023-02-28T07:37:56;9.43;;;5.90;;
2658;SDS011;1339;53.304;10.406;2023-02-28T07:40:23;10.48;;;6.75;;
2658;SDS011;1339;53.304;10.406;2023-02-28T07:42:52;7.55;;;6.80;;
2658;SDS011;1339;53.304;10.406;2023-02-28T07:45:19;13.02;;;7.43;;
2658;SDS011;1339;53.304;10.406;2023-02-28T07:47:46;8.02;;;6.07;;
2658;SDS011;1339;53.304;10.406;2023-02-28T07:50:14;9.48;;;6.60;;
2658;SDS011;1339;53.304;10.406;2023-02-28T07:52:42;9.60;;;6.80;;
2658;SDS011;1339;53.304;10.406;2023-02-28T07:55:09;9.45;;;6.45;;
2658;SDS011;1339;53.304;10.406;2023-02-28T07:57:38;6.90;;;6.20;;
2658;SDS011;1339;53.304;10.406;2023-02-28T08:00:07;9.35;;;6.35;;
2658;SDS011;1339;53.304;10.406;2023-02-28T08:02:35;9.15;;;7.03;;
2658;SDS011;1339;53.304;10.406;2023-02-28T08:05:02;20.60;;;8.48;;
2658;SDS011;1339;53.304;10.406;2023-02-28T08:07:29;8.75;;;6.80;;
2658;SDS011;1339;53.304;10.406;2023-02-28T08:09:57;9.43;;;7.18;;
2658;SDS011;1339;53.304;10.406;2023-02-28T08:12:24;10.27;;;7.70;;
2658;SDS011;1339;53.304;10.406;2023-02-28T08:14:51;8.60;;;7.07;;
2658;SDS011;1339;53.304;10.406;2023-02-28T08:17:19;7.28;;;6.57;;
2658;SDS011;1339;53.304;10.406;2023-02-28T08:19:46;11.18;;;7.00;;
2658;SDS011;1339;53.304;10.406;2023-02-28T08:22:13;11.63;;;8.15;;
2658;SDS011;1339;53.304;10.406;2023-02-28T08:24:40;7.65;;;6.70;;
2658;SDS011;1339;53.304;10.406;2023-02-28T08:27:07;7.93;;;7.05;;
2658;SDS011;1339;53.304;10.406;2023-02-28T08:29:36;8.85;;;7.00;;
2658;SDS011;1339;53.304;10.406;2023-02-28T08:32:04;10.55;;;7.78;;
2658;SDS011;1339;53.304;10.406;2023-02-28T08:34:32;11.80;;;8.18;;
2658;SDS011;1339;53.304;10.406;2023-02-28T08:36:59;12.10;;;7.95;;
2658;SDS011;1339;53.304;10.406;2023-02-28T08:39:26;9.05;;;7.88;;
2658;SDS011;1339;53.304;10.406;2023-02-28T08:41:53;9.93;;;8.45;;
2658;SDS011;1339;53.304;10.406;2023-02-28T08:44:20;9.55;;;8.60;;
2658;SDS011;1339;53.304;10.406;2023-02-28T08:46:47;12.00;;;7.65;;
2658;SDS011;1339;53.304;10.406;2023-02-28T08:49:13;10.32;;;7.95;;
2658;SDS011;1339;53.304;10.406;2023-02-28T08:51:42;10.68;;;7.72;;
2658;SDS011;1339;53.304;10.406;2023-02-28T08:54:09;11.18;;;8.60;;
2658;SDS011;1339;53.304;10.406;2023-02-28T08:56:37;9.40;;;8.40;;
2658;SDS011;1339;53.304;10.406;2023-02-28T08:59:05;8.00;;;7.20;;
2658;SDS011;1339;53.304;10.406;2023-02-28T09:01:31;10.48;;;8.60;;
2658;SDS011;1339;53.304;10.406;2023-02-28T09:03:58;12.20;;;7.80;;
2658;SDS011;1339;53.304;10.406;2023-02-28T09:06:27;11.68;;;8.63;;
2658;SDS011;1339;53.304;10.406;2023-02-28T09:08:57;9.50;;;8.32;;
2658;SDS011;1339;53.304;10.406;2023-02-28T09:11:25;9.73;;;7.57;;
2658;SDS011;1339;53.304;10.406;2023-02-28T09:13:53;9.65;;;8.55;;
2658;SDS011;1339;53.304;10.406;2023-02-28T09:16:21;9.60;;;7.60;;
2658;SDS011;1339;53.304;10.406;2023-02-28T09:18:48;8.10;;;7.25;;
2658;SDS011;1339;53.304;10.406;2023-02-28T09:21:15;10.80;;;8.27;;
2658;SDS011;1339;53.304;10.406;2023-02-28T09:23:43;8.55;;;7.75;;
2658;SDS011;1339;53.304;10.406;2023-02-28T09:26:14;10.50;;;7.60;;
2658;SDS011;1339;53.304;10.406;2023-02-28T09:28:42;11.73;;;9.10;;
2658;SDS011;1339;53.304;10.406;2023-02-28T09:31:11;8.10;;;6.60;;
2658;SDS011;1339;53.304;10.406;2023-02-28T09:33:38;8.40;;;6.07;;
2658;SDS011;1339;53.304;10.406;2023-02-28T09:36:06;6.88;;;6.25;;
2658;SDS011;1339;53.304;10.406;2023-02-28T09:38:33;8.15;;;5.18;;
2658;SDS011;1339;53.304;10.406;2023-02-28T09:41:01;5.95;;;5.45;;
2658;SDS011;1339;53.304;10.406;2023-02-28T09:43:32;5.65;;;4.75;;
2658;SDS011;1339;53.304;10.406;2023-02-28T09:46:00;4.20;;;3.80;;
2658;SDS011;1339;53.304;10.406;2023-02-28T09:48:29;2.97;;;2.75;;
2658;SDS011;1339;53.304;10.406;2023-02-28T09:51:00;3.50;;;2.85;;
2658;SDS011;1339;53.304;10.406;2023-02-28T09:53:30;3.72;;;2.13;;
2658;SDS011;1339;53.304;10.406;2023-02-28T09:55:59;2.88;;;1.85;;
2658;SDS011;1339;53.304;10.406;2023-02-28T09:58:31;2.50;;;1.92;;
2658;SDS011;1339;53.304;10.406;2023-02-28T10:01:00;3.47;;;2.83;;
2658;SDS011;1339;53.304;10.406;2023-02-28T10:03:31;3.83;;;2.60;;
2658;SDS011;1339;53.304;10.406;2023-02-28T10:06:02;2.88;;;2.53;;
2658;SDS011;1339;53.304;10.406;2023-02-28T10:08:32;5.28;;;2.80;;
2658;SDS011;1339;53.304;10.406;2023-02-28T10:11:01;3.20;;;2.22;;
2658;SDS011;1339;53.304;10.406;2023-02-28T10:13:33;2.80;;;2.10;;
2658;SDS011;1339;53.304;10.406;2023-02-28T10:16:02;1.90;;;1.70;;
2658;SDS011;1339;53.304;10.406;2023-02-28T10:18:31;3.92;;;2.40;;
2658;SDS011;1339;53.304;10.406;2023-02-28T10:21:01;4.72;;;2.20;;
2658;SDS011;1339;53.304;10.406;2023-02-28T10:23:31;2.10;;;2.00;;
2658;SDS011;1339;53.304;10.406;2023-02-28T10:26:01;2.67;;;2.47;;
2658;SDS011;1339;53.304;10.406;2023-02-28T10:28:33;4.20;;;3.80;;
2658;SDS011;1339;53.304;10.406;2023-02-28T10:31:00;2.42;;;2.00;;
2658;SDS011;1339;53.304;10.406;2023-02-28T10:33:28;3.72;;;2.75;;
2658;SDS011;1339;53.304;10.406;2023-02-28T10:35:55;2.15;;;2.03;;
2658;SDS011;1339;53.304;10.406;2023-02-28T10:38:25;3.63;;;2.60;;
2658;SDS011;1339;53.304;10.406;2023-02-28T10:40:52;2.38;;;2.17;;
2658;SDS011;1339;53.304;10.406;2023-02-28T10:43:29;3.60;;;1.90;;
2658;SDS011;1339;53.304;10.406;2023-02-28T10:45:59;1.60;;;1.50;;
2658;SDS011;1339;53.304;10.406;2023-02-28T10:48:33;3.60;;;2.15;;
2658;SDS011;1339;53.304;10.406;2023-02-28T10:51:01;3.08;;;1.95;;
2658;SDS011;1339;53.304;10.406;2023-02-28T10:53:31;4.35;;;2.80;;
2658;SDS011;1339;53.304;10.406;2023-02-28T10:55:59;7.25;;;3.88;;
2658;SDS011;1339;53.304;10.406;2023-02-28T10:58:27;3.20;;;2.90;;
2658;SDS011;1339;53.304;10.406;2023-02-28T11:00:54;6.43;;;2.60;;
2658;SDS011;1339;53.304;10.406;2023-02-28T11:03:29;7.10;;;2.58;;
2658;SDS011;1339;53.304;10.406;2023-02-28T11:05:56;4.03;;;2.60;;
2658;SDS011;1339;53.304;10.406;2023-02-28T11:08:23;3.88;;;1.80;;
2658;SDS011;1339;53.304;10.406;2023-02-28T11:10:53;1.75;;;1.65;;
2658;SDS011;1339;53.304;10.406;2023-02-28T11:13:21;2.55;;;1.70;;
2658;SDS011;1339;53.304;10.406;2023-02-28T11:15:52;2.78;;;2.47;;
2658;SDS011;1339;53.304;10.406;2023-02-28T11:18:21;4.72;;;2.95;;
2658;SDS011;1339;53.304;10.406;2023-02-28T11:20:51;1.80;;;1.35;;
2658;SDS011;1339;53.304;10.406;2023-02-28T11:23:19;3.28;;;1.67;;
2658;SDS011;1339;53.304;10.406;2023-02-28T11:25:47;1.98;;;1.83;;
2658;SDS011;1339;53.304;10.406;2023-02-28T11:28:23;2.25;;;2.05;;
2658;SDS011;1339;53.304;10.406;2023-02-28T11:30:59;6.25;;;3.47;;
2658;SDS011;1339;53.304;10.406;2023-02-28T11:33:27;6.82;;;4.07;;
2658;SDS011;1339;53.304;10.406;2023-02-28T11:35:57;9.18;;;4.85;;
2658;SDS011;1339;53.304;10.406;2023-02-28T11:38:25;11.10;;;4.10;;
2658;SDS011;1339;53.304;10.406;2023-02-28T11:40:57;2.58;;;2.17;;
2658;SDS011;1339;53.304;10.406;2023-02-28T11:43:36;6.00;;;4.10;;
2658;SDS011;1339;53.304;10.406;2023-02-28T11:46:06;2.40;;;2.08;;
2658;SDS011;1339;53.304;10.406;2023-02-28T11:48:38;3.47;;;2.83;;
2658;SDS011;1339;53.304;10.406;2023-02-28T11:51:12;2.47;;;2.28;;
2658;SDS011;1339;53.304;10.406;2023-02-28T11:53:50;2.00;;;1.90;;
2658;SDS011;1339;53.304;10.406;2023-02-28T11:56:20;2.55;;;1.60;;
2658;SDS011;1339;53.304;10.406;2023-02-28T11:58:50;1.95;;;1.75;;
2658;SDS011;1339;53.304;10.406;2023-02-28T12:01:22;2.00;;;1.80;;
2658;SDS011;1339;53.304;10.406;2023-02-28T12:03:58;1.98;;;1.83;;
2658;SDS011;1339;53.304;10.406;2023-02-28T12:06:30;1.88;;;1.65;;
2658;SDS011;1339;53.304;10.406;2023-02-28T12:09:02;2.60;;;1.85;;
2658;SDS011;1339;53.304;10.406;2023-02-28T12:11:34;1.55;;;1.27;;
2658;SDS011;1339;53.304;10.406;2023-02-28T12:14:06;1.67;;;1.58;;
2658;SDS011;1339;53.304;10.406;2023-02-28T12:16:40;2.25;;;1.70;;
2658;SDS011;1339;53.304;10.406;2023-02-28T12:19:17;1.60;;;1.50;;
2658;SDS011;1339;53.304;10.406;2023-02-28T12:21:52;4.70;;;1.95;;
2658;SDS011;1339;53.304;10.406;2023-02-28T12:24:28;1.63;;;1.52;;
2658;SDS011;1339;53.304;10.406;2023-02-28T12:27:00;1.95;;;1.30;;
2658;SDS011;1339;53.304;10.406;2023-02-28T12:29:29;2.95;;;1.90;;
2658;SDS011;1339;53.304;10.406;2023-02-28T12:31:58;1.60;;;1.50;;
2658;SDS011;1339;53.304;10.406;2023-02-28T12:34:27;1.98;;;1.77;;
2658;SDS011;1339;53.304;10.406;2023-02-28T12:36:56;3.53;;;2.13;;
2658;SDS011;1339;53.304;10.406;2023-02-28T12:39:26;2.53;;;1.90;;
2658;SDS011;1339;53.304;10.406;2023-02-28T12:41:54;1.65;;;1.42;;
2658;SDS011;1339;53.304;10.406;2023-02-28T12:44:24;1.52;;;1.42;;
2658;SDS011;1339;53.304;10.406;2023-02-28T12:46:54;5.28;;;1.75;;
2658;SDS011;1339;53.304;10.406;2023-02-28T12:49:23;7.22;;;4.65;;
2658;SDS011;1339;53.304;10.406;2023-02-28T12:51:52;1.92;;;1.70;;
2658;SDS011;1339;53.304;10.406;2023-02-28T12:54:21;2.85;;;2.45;;
2658;SDS011;1339;53.304;10.406;2023-02-28T12:56:53;2.95;;;1.80;;
2658;SDS011;1339;53.304;10.406;2023-02-28T12:59:22;1.70;;;1.60;;
2658;SDS011;1339;53.304;10.406;2023-02-28T13:02:00;1.63;;;1.52;;
2658;SDS011;1339;53.304;10.406;2023-02-28T13:07:21;2.72;;;1.70;;
2658;SDS011;1339;53.304;10.406;2023-02-28T13:09:57;2.88;;;2.05;;
2658;SDS011;1339;53.304;10.406;2023-02-28T13:12:25;2.13;;;1.83;;
2658;SDS011;1339;53.304;10.406;2023-02-28T13:15:00;1.80;;;1.50;;
2658;SDS011;1339;53.304;10.406;2023-02-28T13:17:28;1.85;;;1.70;;
2658;SDS011;1339;53.304;10.406;2023-02-28T13:19:56;1.73;;;1.50;;
2658;SDS011;1339;53.304;10.406;2023-02-28T13:27:53;1.73;;;1.55;;
2658;SDS011;1339;53.304;10.406;2023-02-28T13:33:26;2.17;;;1.33;;
2658;SDS011;1339;53.304;10.406;2023-02-28T13:38:39;2.47;;;2.25;;
2658;SDS011;1339;53.304;10.406;2023-02-28T13:44:05;1.75;;;1.25;;
2658;SDS011;1339;53.304;10.406;2023-02-28T13:46:33;5.63;;;3.05;;
2658;SDS011;1339;53.304;10.406;2023-02-28T13:49:19;3.13;;;2.50;;
2658;SDS011;1339;53.304;10.406;2023-02-28T13:51:46;4.00;;;2.83;;
2658;SDS011;1339;53.304;10.406;2023-02-28T13:57:01;3.35;;;1.88;;
2658;SDS011;1339;53.304;10.406;2023-02-28T13:59:33;1.60;;;1.40;;
2658;SDS011;1339;53.304;10.406;2023-02-28T14:04:56;2.83;;;1.42;;
2658;SDS011;1339;53.304;10.406;2023-02-28T14:07:27;1.60;;;1.50;;
2658;SDS011;1339;53.304;10.406;2023-02-28T14:09:56;1.58;;;1.48;;
2658;SDS011;1339;53.304;10.406;2023-02-28T14:17:52;1.42;;;1.33;;
2658;SDS011;1339;53.304;10.406;2023-02-28T14:20:20;2.95;;;1.00;;
2658;SDS011;1339;53.304;10.406;2023-02-28T14:22:50;1.80;;;1.40;;
2658;SDS011;1339;53.304;10.406;2023-02-28T14:25:22;3.15;;;1.90;;
2658;SDS011;1339;53.304;10.406;2023-02-28T14:27:53;2.00;;;1.15;;
2658;SDS011;1339;53.304;10.406;2023-02-28T14:30:29;1.45;;;1.35;;
2658;SDS011;1339;53.304;10.406;2023-02-28T14:33:08;2.17;;;1.98;;
2658;SDS011;1339;53.304;10.406;2023-02-28T14:35:45;1.42;;;1.10;;
2658;SDS011;1339;53.304;10.406;2023-02-28T14:38:14;1.33;;;1.05;;
2658;SDS011;1339;53.304;10.406;2023-02-28T14:40:42;1.55;;;1.10;;
2658;SDS011;1339;53.304;10.406;2023-02-28T14:43:18;1.85;;;1.20;;
2658;SDS011;1339;53.304;10.406;2023-02-28T14:45:48;1.80;;;1.35;;
2658;SDS011;1339;53.304;10.406;2023-02-28T14:48:17;1.00;;;0.90;;
2658;SDS011;1339;53.304;10.406;2023-02-28T14:50:48;1.00;;;0.90;;
2658;SDS011;1339;53.304;10.406;2023-02-28T14:53:16;1.08;;;0.98;;
2658;SDS011;1339;53.304;10.406;2023-02-28T14:55:44;1.17;;;1.08;;
2658;SDS011;1339;53.304;10.406;2023-02-28T14:58:18;1.13;;;1.02;;
2658;SDS011;1339;53.304;10.406;2023-02-28T15:00:47;1.85;;;0.90;;
2658;SDS011;1339;53.304;10.406;2023-02-28T15:03:18;1.05;;;0.80;;
2658;SDS011;1339;53.304;10.406;2023-02-28T15:05:51;1.10;;;1.00;;
2658;SDS011;1339;53.304;10.406;2023-02-28T15:08:18;0.90;;;0.90;;
2658;SDS011;1339;53.304;10.406;2023-02-28T15:10:49;1.48;;;0.93;;
2658;SDS011;1339;53.304;10.406;2023-02-28T15:13:17;2.33;;;1.40;;
2658;SDS011;1339;53.304;10.406;2023-02-28T15:15:45;1.48;;;1.30;;
2658;SDS011;1339;53.304;10.406;2023-02-28T15:18:15;1.65;;;1.33;;
2658;SDS011;1339;53.304;10.406;2023-02-28T15:20:44;2.63;;;0.90;;
2658;SDS011;1339;53.304;10.406;2023-02-28T15:23:11;3.42;;;1.55;;
2658;SDS011;1339;53.304;10.406;2023-02-28T15:25:39;1.27;;;1.17;;
2658;SDS011;1339;53.304;10.406;2023-02-28T15:28:09;3.72;;;1.30;;
2658;SDS011;1339;53.304;10.406;2023-02-28T15:30:39;1.70;;;1.60;;
2658;SDS011;1339;53.304;10.406;2023-02-28T15:33:20;1.60;;;1.17;;
2658;SDS011;1339;53.304;10.406;2023-02-28T15:35:48;1.52;;;1.23;;
2658;SDS011;1339;53.304;10.406;2023-02-28T15:38:17;2.38;;;1.58;;
2658;SDS011;1339;53.304;10.406;2023-02-28T15:40:49;2.80;;;1.38;;